Holden, Canada
Current Conditions -  °F | °C
As of 8:00 PM on Saturday 22 Nov 2014 (Local Time) from CYEG Reporting Station
Light Snow Light Snow  
Wind Chill: 11°   Ceiling: 1700
Heat Index: 23°   Visibility: 4mi
Dew Point: 19°   Wind: 14mph
Humidity: 86%   Direction: 340°NNW
Pressure: 29.55"   Gusts: NA
Location:  53.23°N, 112.23°W
Report Text: CYEG 230300Z 34012KT 4SM -SN BKN017 OVC065 M05/M07 A2955 RMK SC6SC2 SLP042
Loading
Personal Weather Stations






























Interactive Weather Map New forecast layout! Learn more

10-Day Weather Forecast

Advertisements
Track Severe Weather on mobile